createdAt,value
2022-10-19T00:00:24.660Z,85.57
2022-10-19T00:03:08.358Z,85.91
2022-10-19T00:05:52.109Z,86.37
2022-10-19T00:08:37.271Z,86.42
2022-10-19T00:11:21.089Z,87.80
2022-10-19T00:14:05.584Z,88.58
2022-10-19T00:16:50.944Z,87.93
2022-10-19T00:19:34.653Z,87.37
2022-10-19T00:22:18.476Z,86.60
2022-10-19T00:25:03.573Z,86.83
2022-10-19T00:27:48.745Z,86.95
2022-10-19T00:30:32.558Z,87.24
2022-10-19T00:33:20.977Z,87.48
2022-10-19T00:36:05.403Z,86.77
2022-10-19T00:38:49.783Z,87.13
2022-10-19T00:41:36.666Z,86.43
2022-10-19T00:45:11.989Z,86.80
2022-10-19T00:47:56.423Z,87.13
2022-10-19T00:50:41.344Z,87.14
2022-10-19T00:53:28.087Z,87.63
2022-10-19T00:56:15.745Z,87.97
2022-10-19T00:59:00.984Z,87.93
2022-10-19T01:01:46.534Z,88.30
2022-10-19T01:04:31.947Z,87.82
2022-10-19T01:07:16.140Z,88.99
2022-10-19T01:10:00.585Z,90.22
2022-10-19T01:13:06.774Z,88.89
2022-10-19T01:15:59.010Z,87.87
2022-10-19T01:18:49.669Z,87.79
2022-10-19T01:21:40.471Z,86.96
2022-10-19T01:24:40.670Z,87.68
2022-10-19T01:27:38.962Z,87.56
2022-10-19T01:30:38.143Z,86.39
2022-10-19T01:33:40.668Z,85.55
2022-10-19T01:36:30.487Z,85.69
2022-10-19T01:39:24.437Z,85.44
2022-10-19T01:42:13.765Z,84.11
2022-10-19T01:45:05.713Z,84.45
2022-10-19T01:47:55.779Z,84.64
2022-10-19T01:50:44.625Z,84.52
2022-10-19T01:53:32.578Z,84.38
2022-10-19T01:56:19.953Z,84.10
2022-10-19T01:59:09.011Z,83.53
2022-10-19T02:01:55.086Z,85.49
2022-10-19T02:04:42.156Z,84.70
2022-10-19T02:07:26.738Z,84.27
2022-10-19T02:10:10.767Z,85.12
2022-10-19T02:12:56.663Z,84.56
2022-10-19T02:16:04.639Z,85.00
2022-10-19T02:18:51.909Z,85.79
2022-10-19T02:21:37.262Z,85.05
2022-10-19T02:24:21.065Z,85.07
2022-10-19T02:27:06.429Z,86.33
2022-10-19T02:29:50.280Z,87.18
2022-10-19T02:32:34.448Z,87.99
2022-10-19T02:35:18.711Z,87.55
2022-10-19T02:38:06.259Z,89.33
2022-10-19T02:40:55.395Z,87.83
2022-10-19T02:43:42.073Z,88.98
2022-10-19T02:46:31.525Z,88.05
2022-10-19T02:49:16.083Z,89.68
2022-10-19T02:52:01.798Z,89.76
2022-10-19T02:54:47.379Z,90.48
2022-10-19T02:57:32.701Z,90.55
2022-10-19T03:00:17.065Z,91.06
2022-10-19T03:03:00.882Z,90.39
2022-10-19T03:05:44.671Z,88.77
2022-10-19T03:08:28.396Z,90.40
2022-10-19T03:11:13.517Z,90.36
2022-10-19T03:13:57.262Z,89.10
2022-10-19T03:16:41.021Z,88.05
2022-10-19T03:19:24.879Z,87.93
2022-10-19T03:22:08.835Z,86.57
2022-10-19T03:24:52.683Z,85.91
2022-10-19T03:27:37.763Z,85.94
2022-10-19T03:30:21.475Z,85.04
2022-10-19T03:33:05.439Z,84.80
2022-10-19T03:35:49.208Z,82.66
2022-10-19T03:38:32.923Z,83.11
2022-10-19T03:41:16.743Z,83.26
2022-10-19T03:44:02.310Z,82.91
2022-10-19T03:46:46.270Z,82.59
2022-10-19T03:49:29.992Z,82.59
2022-10-19T03:52:13.750Z,82.85
2022-10-19T03:54:57.575Z,83.27
2022-10-19T03:57:41.216Z,82.36
2022-10-19T04:00:26.421Z,83.44
2022-10-19T04:03:10.215Z,84.42
2022-10-19T04:05:54.164Z,85.10
2022-10-19T04:08:38.184Z,85.15
2022-10-19T04:11:24.620Z,85.29
2022-10-19T04:16:54.737Z,86.45
2022-10-19T04:19:38.569Z,86.33
2022-10-19T04:22:22.361Z,86.61
2022-10-19T04:25:07.458Z,85.18
2022-10-19T04:27:51.109Z,85.76
2022-10-19T04:30:34.949Z,85.95
2022-10-19T04:33:20.080Z,84.45
2022-10-19T04:36:06.357Z,84.20
2022-10-19T04:38:50.149Z,84.06
2022-10-19T04:41:34.336Z,83.30
2022-10-19T04:44:18.235Z,83.73
2022-10-19T04:47:01.996Z,84.06
2022-10-19T04:49:47.045Z,84.40
2022-10-19T04:52:31.257Z,85.13
2022-10-19T04:55:15.161Z,84.76
2022-10-19T04:57:58.863Z,84.08
2022-10-19T05:00:42.646Z,84.53
2022-10-19T05:03:26.506Z,84.51
2022-10-19T05:06:12.704Z,85.42
2022-10-19T05:08:57.076Z,85.28
2022-10-19T05:11:40.963Z,84.12
2022-10-19T05:14:25.129Z,83.65
2022-10-19T05:17:08.959Z,83.34
2022-10-19T05:19:52.774Z,83.04
2022-10-19T05:22:38.202Z,82.46
2022-10-19T05:25:22.004Z,82.51
2022-10-19T05:28:05.664Z,82.91
2022-10-19T05:30:49.341Z,82.65
2022-10-19T05:33:33.068Z,81.62
2022-10-19T05:36:19.380Z,81.29
2022-10-19T05:39:06.948Z,80.97
2022-10-19T05:41:50.642Z,80.62
2022-10-19T05:44:34.635Z,79.87
2022-10-19T05:47:18.328Z,80.46
2022-10-19T05:50:02.090Z,80.42
2022-10-19T05:52:47.431Z,82.05
2022-10-19T05:55:36.015Z,81.49
2022-10-19T05:58:19.889Z,80.52
2022-10-19T06:01:04.436Z,80.37
2022-10-19T06:03:52.109Z,80.22
2022-10-19T06:06:36.120Z,79.30
2022-10-19T06:09:20.210Z,78.63
2022-10-19T06:12:05.941Z,78.20
2022-10-19T06:14:51.988Z,76.12
2022-10-19T06:17:36.187Z,80.06
2022-10-19T06:20:20.240Z,79.95
2022-10-19T06:23:05.839Z,78.49
2022-10-19T06:25:49.879Z,77.95
2022-10-19T06:28:35.616Z,76.78
2022-10-19T06:31:19.301Z,76.36
2022-10-19T06:34:03.892Z,75.36
2022-10-19T06:36:47.749Z,74.52
2022-10-19T06:39:31.419Z,74.38
2022-10-19T06:42:15.106Z,72.86
2022-10-19T06:45:00.493Z,72.79
2022-10-19T06:47:44.363Z,72.25
2022-10-19T06:50:28.444Z,73.87
2022-10-19T06:53:12.462Z,73.68
2022-10-19T06:55:59.169Z,74.47
2022-10-19T06:58:42.968Z,73.05
2022-10-19T07:01:28.115Z,72.96
2022-10-19T07:04:11.858Z,73.52
2022-10-19T07:06:55.690Z,72.88
2022-10-19T07:09:39.551Z,72.49
2022-10-19T07:12:23.323Z,72.85
2022-10-19T07:15:08.285Z,72.32
2022-10-19T07:17:54.354Z,70.64
2022-10-19T07:20:38.259Z,70.22
2022-10-19T07:23:22.103Z,70.10
2022-10-19T07:26:07.758Z,70.81
2022-10-19T07:28:51.634Z,73.40
2022-10-19T07:31:35.723Z,71.86
2022-10-19T07:34:23.183Z,70.40
2022-10-19T07:37:09.187Z,71.95
2022-10-19T07:39:52.952Z,70.78
2022-10-19T07:42:37.895Z,70.10
2022-10-19T07:45:21.586Z,72.08
2022-10-19T07:48:05.741Z,72.29
2022-10-19T07:50:50.820Z,71.29
2022-10-19T07:53:35.420Z,71.11
2022-10-19T07:56:21.472Z,70.33
2022-10-19T07:59:05.894Z,69.48
2022-10-19T08:01:50.441Z,70.33
2022-10-19T08:05:00.342Z,68.85
2022-10-19T08:07:39.464Z,69.19
2022-10-19T08:10:23.226Z,70.13
2022-10-19T08:13:06.984Z,70.29
2022-10-19T08:15:51.206Z,70.98
2022-10-19T08:18:36.490Z,71.49
2022-10-19T08:21:20.339Z,72.33
2022-10-19T08:24:06.137Z,76.16
2022-10-19T08:26:51.575Z,74.53
2022-10-19T08:29:35.367Z,76.60
2022-10-19T08:32:19.142Z,75.49
2022-10-19T08:35:05.972Z,74.98
2022-10-19T08:37:52.422Z,74.10
2022-10-19T08:40:38.190Z,75.82
2022-10-19T08:43:33.086Z,75.25
2022-10-19T08:46:26.047Z,74.28
2022-10-19T08:49:13.712Z,73.91
2022-10-19T08:52:00.896Z,72.36
2022-10-19T08:54:51.174Z,73.01
2022-10-19T08:57:44.526Z,72.73
2022-10-19T09:03:56.033Z,69.50
2022-10-19T09:06:49.979Z,70.34
2022-10-19T09:09:36.050Z,69.71
2022-10-19T09:12:36.540Z,68.46
2022-10-19T09:15:27.444Z,66.69
2022-10-19T09:18:12.793Z,65.96
2022-10-19T09:21:01.715Z,63.23
2022-10-19T09:23:55.291Z,62.71
2022-10-19T09:26:48.452Z,61.86
2022-10-19T09:29:39.363Z,60.47
2022-10-19T09:32:29.147Z,58.68
2022-10-19T09:35:24.208Z,56.18
2022-10-19T09:38:08.580Z,55.25
2022-10-19T09:40:52.244Z,52.92
2022-10-19T09:43:36.288Z,53.88
2022-10-19T09:46:31.458Z,47.09
2022-10-19T09:49:16.644Z,47.17
2022-10-19T09:52:00.327Z,45.86
2022-10-19T09:54:44.497Z,45.99
2022-10-19T09:57:28.295Z,45.47
2022-10-19T10:00:19.935Z,44.87
2022-10-19T10:03:03.774Z,45.07
2022-10-19T10:05:49.683Z,45.32
2022-10-19T10:08:37.708Z,44.40
2022-10-19T10:11:26.176Z,44.21
2022-10-19T10:14:22.875Z,43.66
2022-10-19T10:17:09.140Z,44.99
2022-10-19T10:20:05.972Z,45.99
2022-10-19T10:22:58.173Z,45.72
2022-10-19T10:25:50.461Z,46.64
2022-10-19T10:28:34.429Z,46.22
2022-10-19T10:31:23.551Z,46.59
2022-10-19T10:34:22.486Z,46.24
2022-10-19T10:37:19.483Z,46.17
2022-10-19T10:40:07.454Z,45.53
2022-10-19T10:42:53.617Z,45.36
2022-10-19T10:45:41.747Z,45.30
2022-10-19T10:48:30.285Z,44.19
2022-10-19T10:51:26.047Z,44.12
2022-10-19T10:54:20.409Z,43.26
2022-10-19T10:57:16.866Z,42.67
2022-10-19T11:00:07.801Z,41.17
2022-10-19T11:02:57.269Z,39.70
2022-10-19T11:05:44.935Z,38.56
2022-10-19T11:08:34.969Z,33.90
2022-10-19T11:11:22.876Z,32.61
2022-10-19T11:14:26.049Z,31.63
2022-10-19T11:17:19.548Z,31.45
2022-10-19T11:20:03.439Z,28.70
2022-10-19T11:22:54.809Z,29.40
2022-10-19T11:25:54.440Z,29.18
2022-10-19T11:28:55.216Z,29.32
2022-10-19T11:31:48.560Z,28.78
2022-10-19T11:34:51.566Z,27.87
2022-10-19T11:37:49.971Z,27.44
2022-10-19T11:44:10.467Z,27.77
2022-10-19T11:47:08.144Z,26.60
2022-10-19T11:50:04.289Z,28.11
2022-10-19T11:52:57.580Z,28.25
2022-10-19T11:55:52.388Z,28.42
2022-10-19T11:58:51.441Z,28.42
2022-10-19T12:01:55.840Z,28.84
2022-10-19T12:04:56.648Z,29.64
2022-10-19T12:07:57.151Z,29.73
2022-10-19T12:10:48.314Z,29.54
2022-10-19T12:13:39.251Z,30.03
2022-10-19T12:16:30.575Z,30.16
2022-10-19T12:19:20.901Z,30.37
2022-10-19T12:22:12.668Z,30.31
2022-10-19T12:24:58.994Z,30.56
2022-10-19T12:27:45.865Z,31.64
2022-10-19T12:30:29.902Z,31.10
2022-10-19T12:33:19.918Z,31.24
2022-10-19T12:36:16.138Z,30.87
2022-10-19T12:39:11.463Z,30.70
2022-10-19T12:42:01.264Z,31.01
2022-10-19T12:45:03.507Z,31.22
2022-10-19T12:48:20.241Z,31.56
2022-10-19T12:51:06.815Z,31.50
2022-10-19T12:53:50.948Z,31.60
2022-10-19T12:56:49.828Z,31.19
2022-10-19T12:59:35.249Z,30.93
2022-10-19T13:02:29.509Z,30.96
2022-10-19T13:05:21.735Z,31.70
2022-10-19T13:08:10.625Z,32.06
2022-10-19T13:11:10.023Z,31.62
2022-10-19T13:14:00.198Z,30.81
2022-10-19T13:16:59.370Z,31.99
2022-10-19T13:19:43.153Z,32.45
2022-10-19T13:22:29.404Z,32.16
2022-10-19T13:25:31.543Z,32.33
2022-10-19T13:28:38.123Z,31.79
2022-10-19T13:31:28.910Z,32.22
2022-10-19T13:34:17.765Z,31.92
2022-10-19T13:37:03.424Z,31.96
2022-10-19T13:39:48.729Z,31.73
2022-10-19T13:42:32.694Z,32.05
2022-10-19T13:45:24.140Z,31.82
2022-10-19T13:48:19.309Z,32.23
2022-10-19T13:51:09.485Z,32.19
2022-10-19T13:54:04.480Z,32.05
2022-10-19T13:57:17.251Z,31.92
2022-10-19T14:00:12.867Z,32.48
2022-10-19T14:03:22.456Z,32.04
2022-10-19T14:06:27.562Z,32.44
2022-10-19T14:09:45.804Z,32.45
2022-10-19T14:12:31.148Z,32.78
2022-10-19T14:15:23.504Z,32.80
2022-10-19T14:18:24.074Z,32.77
2022-10-19T14:21:10.504Z,32.56
2022-10-19T14:23:54.199Z,32.69
2022-10-19T14:26:38.011Z,32.89
2022-10-19T14:29:22.224Z,33.14
2022-10-19T14:32:06.359Z,33.59
2022-10-19T14:34:51.953Z,33.88
2022-10-19T14:37:37.629Z,33.81
2022-10-19T14:40:28.406Z,34.01
2022-10-19T14:43:21.747Z,34.69
2022-10-19T14:46:14.020Z,34.43
2022-10-19T14:49:01.311Z,35.20
2022-10-19T14:51:51.118Z,35.33
2022-10-19T14:54:38.194Z,35.49
2022-10-19T14:57:27.814Z,35.87
2022-10-19T15:00:18.947Z,36.15
2022-10-19T15:03:06.467Z,36.31
2022-10-19T15:05:55.610Z,36.51
2022-10-19T15:08:44.033Z,37.13
2022-10-19T15:11:31.076Z,37.09
2022-10-19T15:14:18.067Z,37.33
2022-10-19T15:17:03.433Z,37.55
2022-10-19T15:19:47.610Z,37.94
2022-10-19T15:22:40.762Z,38.83
2022-10-19T15:25:35.378Z,39.41
2022-10-19T15:28:34.943Z,40.20
2022-10-19T15:31:22.617Z,40.61
2022-10-19T15:34:06.595Z,41.03
2022-10-19T15:37:02.119Z,41.18
2022-10-19T15:39:46.131Z,42.11
2022-10-19T15:42:39.237Z,42.70
2022-10-19T15:45:35.758Z,42.87
2022-10-19T15:48:28.494Z,43.52
2022-10-19T15:51:44.111Z,43.83
2022-10-19T15:54:27.895Z,44.39
2022-10-19T15:57:25.590Z,45.02
2022-10-19T16:00:15.866Z,45.61
2022-10-19T16:02:59.805Z,46.42
2022-10-19T16:05:43.517Z,46.85
2022-10-19T16:08:27.230Z,46.24
2022-10-19T16:11:13.882Z,46.88
2022-10-19T16:13:57.708Z,46.37
2022-10-19T16:16:43.207Z,46.63
2022-10-19T16:19:27.038Z,46.56
2022-10-19T16:22:11.458Z,47.58
2022-10-19T16:24:55.272Z,47.51
2022-10-19T16:27:39.646Z,47.27
2022-10-19T16:30:23.351Z,47.35
2022-10-19T16:33:09.207Z,47.90
2022-10-19T16:35:53.030Z,47.94
2022-10-19T16:38:37.155Z,47.95
2022-10-19T16:41:21.075Z,48.44
2022-10-19T16:44:04.761Z,48.40
2022-10-19T16:46:48.467Z,48.59
2022-10-19T16:49:34.114Z,48.53
2022-10-19T16:52:17.834Z,48.10
2022-10-19T16:55:01.521Z,48.44
2022-10-19T16:57:46.995Z,48.52
2022-10-19T17:00:30.866Z,48.59
2022-10-19T17:03:14.668Z,48.56
2022-10-19T17:05:59.820Z,48.68
2022-10-19T17:09:20.207Z,48.76
2022-10-19T17:11:47.346Z,48.96
2022-10-19T17:14:31.139Z,49.10
2022-10-19T17:17:17.202Z,49.52
2022-10-19T17:20:00.960Z,49.88
2022-10-19T17:22:46.202Z,49.56
2022-10-19T17:25:30.039Z,49.89
2022-10-19T17:28:13.875Z,49.49
2022-10-19T17:30:58.800Z,49.96
2022-10-19T17:33:43.095Z,49.67
2022-10-19T17:36:28.985Z,49.53
2022-10-19T17:39:17.806Z,49.79
2022-10-19T17:42:03.386Z,49.89
2022-10-19T17:44:47.556Z,49.70
2022-10-19T17:47:31.378Z,49.85
2022-10-19T17:50:15.165Z,50.02
2022-10-19T17:53:00.766Z,50.15
2022-10-19T17:55:45.936Z,50.19
2022-10-19T17:58:32.040Z,50.11
2022-10-19T18:01:17.624Z,50.31
2022-10-19T18:04:01.327Z,50.22
2022-10-19T18:06:45.067Z,50.12
2022-10-19T18:09:28.914Z,50.20
2022-10-19T18:12:14.190Z,50.40
2022-10-19T18:14:57.889Z,50.69
2022-10-19T18:17:41.622Z,51.11
2022-10-19T18:20:25.342Z,50.37
2022-10-19T18:23:09.036Z,50.02
2022-10-19T18:25:54.278Z,50.07
2022-10-19T18:28:39.866Z,50.29
2022-10-19T18:31:25.486Z,50.67
2022-10-19T18:34:13.726Z,51.05
2022-10-19T18:36:57.395Z,51.68
2022-10-19T18:39:41.309Z,52.39
2022-10-19T18:42:25.047Z,52.47
2022-10-19T18:45:11.306Z,53.06
2022-10-19T18:47:55.350Z,52.83
2022-10-19T18:50:39.047Z,52.28
2022-10-19T18:53:22.996Z,51.67
2022-10-19T18:56:09.345Z,51.30
2022-10-19T18:58:53.304Z,51.51
2022-10-19T19:01:39.860Z,51.11
2022-10-19T19:04:23.642Z,51.18
2022-10-19T19:07:07.529Z,50.71
2022-10-19T19:09:52.357Z,50.94
2022-10-19T19:12:36.466Z,50.47
2022-10-19T19:15:20.506Z,50.38
2022-10-19T19:18:05.797Z,50.68
2022-10-19T19:20:49.595Z,50.44
2022-10-19T19:23:34.167Z,50.49
2022-10-19T19:26:18.727Z,50.99
2022-10-19T19:29:02.620Z,50.77
2022-10-19T19:31:47.246Z,50.65
2022-10-19T19:34:32.403Z,50.57
2022-10-19T19:37:16.378Z,50.86
2022-10-19T19:40:00.130Z,50.51
2022-10-19T19:42:43.882Z,51.34
2022-10-19T19:45:27.581Z,51.20
2022-10-19T19:48:11.694Z,50.71
2022-10-19T19:50:56.888Z,51.06
2022-10-19T19:53:40.939Z,51.10
2022-10-19T19:56:24.748Z,51.71
2022-10-19T19:59:08.508Z,51.51
2022-10-19T20:01:52.302Z,51.35
2022-10-19T20:04:36.313Z,51.23
2022-10-19T20:07:21.882Z,51.58
2022-10-19T20:10:05.966Z,51.48
2022-10-19T20:12:49.846Z,51.55
2022-10-19T20:15:33.770Z,51.86
2022-10-19T20:18:17.672Z,51.58
2022-10-19T20:21:02.459Z,51.67
2022-10-19T20:23:48.382Z,51.28
2022-10-19T20:26:32.544Z,51.18
2022-10-19T20:29:16.250Z,51.50
2022-10-19T20:31:59.959Z,51.21
2022-10-19T20:34:44.019Z,51.18
2022-10-19T20:37:27.885Z,51.00
2022-10-19T20:40:13.305Z,51.13
2022-10-19T20:42:57.520Z,50.65
2022-10-19T20:45:41.457Z,50.73
2022-10-19T20:48:25.197Z,50.65
2022-10-19T20:51:13.360Z,50.56
2022-10-19T20:53:58.599Z,50.10
2022-10-19T20:56:43.833Z,49.98
2022-10-19T20:59:27.905Z,50.13
2022-10-19T21:02:12.186Z,50.01
2022-10-19T21:04:55.863Z,50.15
2022-10-19T21:07:39.625Z,49.55
2022-10-19T21:10:23.299Z,49.58
2022-10-19T21:13:08.448Z,49.55
2022-10-19T21:15:52.193Z,50.45
2022-10-19T21:18:35.941Z,49.27
2022-10-19T21:21:21.985Z,49.22
2022-10-19T21:24:08.209Z,49.09
2022-10-19T21:29:42.110Z,49.70
2022-10-19T21:32:26.494Z,49.44
2022-10-19T21:35:10.365Z,48.61
2022-10-19T21:37:54.121Z,48.73
2022-10-19T21:40:37.886Z,48.74
2022-10-19T21:43:21.809Z,48.76
2022-10-19T21:46:08.648Z,48.72
2022-10-19T21:48:52.411Z,48.82
2022-10-19T21:51:38.637Z,49.24
2022-10-19T21:54:24.932Z,49.03
2022-10-19T21:57:09.370Z,49.20
2022-10-19T21:59:53.030Z,49.92
2022-10-19T22:02:38.190Z,49.66
2022-10-19T22:05:22.258Z,49.37
2022-10-19T22:08:06.184Z,49.75
2022-10-19T22:10:50.052Z,49.25
2022-10-19T22:13:34.079Z,49.51
2022-10-19T22:16:19.973Z,49.24
2022-10-19T22:19:06.223Z,49.81
2022-10-19T22:21:49.962Z,49.17
2022-10-19T22:24:34.746Z,48.67
2022-10-19T22:27:18.436Z,48.59
2022-10-19T22:30:02.290Z,48.72
2022-10-19T22:32:47.526Z,48.00
2022-10-19T22:35:32.697Z,48.44
2022-10-19T22:38:16.425Z,47.85
2022-10-19T22:41:00.224Z,47.78
2022-10-19T22:43:44.461Z,47.88
2022-10-19T22:46:28.250Z,47.63
2022-10-19T22:49:12.185Z,47.49
2022-10-19T22:51:57.364Z,47.79
2022-10-19T22:54:41.106Z,47.76
2022-10-19T22:57:25.165Z,46.89
2022-10-19T23:00:10.722Z,47.56
2022-10-19T23:02:54.673Z,47.65
2022-10-19T23:05:38.419Z,47.20
2022-10-19T23:08:23.640Z,47.23
2022-10-19T23:11:07.710Z,47.26
2022-10-19T23:13:51.615Z,47.24
2022-10-19T23:16:35.366Z,47.14
2022-10-19T23:19:19.107Z,47.64
2022-10-19T23:22:02.900Z,48.02
2022-10-19T23:24:47.956Z,48.18
2022-10-19T23:27:31.800Z,47.83
2022-10-19T23:30:15.704Z,49.18
2022-10-19T23:32:59.359Z,49.28
2022-10-19T23:35:43.088Z,48.51
2022-10-19T23:38:26.811Z,48.44
2022-10-19T23:41:12.323Z,49.04
2022-10-19T23:43:56.191Z,48.29
2022-10-19T23:46:39.894Z,48.86
2022-10-19T23:49:23.621Z,48.22
2022-10-19T23:52:07.979Z,48.38
2022-10-19T23:54:51.743Z,48.70
2022-10-19T23:57:37.581Z,49.02
